createdAt,value
2022-11-12T00:00:53.075Z,8.23
2022-11-12T00:03:20.313Z,9.20
2022-11-12T00:05:49.654Z,9.27
2022-11-12T00:08:17.043Z,8.63
2022-11-12T00:10:44.376Z,8.93
2022-11-12T00:13:11.575Z,8.30
2022-11-12T00:15:38.472Z,8.47
2022-11-12T00:18:05.444Z,8.67
2022-11-12T00:20:32.235Z,8.77
2022-11-12T00:22:59.060Z,8.43
2022-11-12T00:25:25.825Z,7.77
2022-11-12T00:27:52.916Z,8.37
2022-11-12T00:30:19.786Z,8.63
2022-11-12T00:32:46.479Z,7.78
2022-11-12T00:35:14.132Z,8.10
2022-11-12T00:37:41.351Z,8.20
2022-11-12T00:40:09.023Z,9.30
2022-11-12T00:42:35.894Z,8.93
2022-11-12T00:45:02.765Z,9.20
2022-11-12T00:47:29.559Z,9.23
2022-11-12T00:49:56.458Z,11.03
2022-11-12T00:52:23.249Z,9.30
2022-11-12T00:54:49.931Z,8.67
2022-11-12T00:57:16.742Z,8.30
2022-11-12T00:59:43.539Z,8.23
2022-11-12T01:02:10.251Z,8.93
2022-11-12T01:04:37.067Z,9.27
2022-11-12T01:07:03.825Z,8.90
2022-11-12T01:09:30.540Z,9.70
2022-11-12T01:11:57.364Z,9.10
2022-11-12T01:14:24.230Z,8.57
2022-11-12T01:16:50.993Z,8.47
2022-11-12T01:19:18.381Z,8.30
2022-11-12T01:21:45.143Z,9.20
2022-11-12T01:24:12.191Z,9.00
2022-11-12T01:26:39.357Z,8.50
2022-11-12T01:29:06.166Z,11.90
2022-11-12T01:31:38.413Z,9.97
2022-11-12T01:34:07.898Z,8.57
2022-11-12T01:36:38.693Z,9.68
2022-11-12T01:39:08.213Z,8.53
2022-11-12T01:41:38.668Z,8.70
2022-11-12T01:44:31.404Z,8.60
2022-11-12T01:46:58.185Z,8.33
2022-11-12T01:49:52.337Z,9.13
2022-11-12T01:52:32.125Z,7.87
2022-11-12T01:55:04.883Z,8.30
2022-11-12T01:57:37.176Z,8.20
2022-11-12T02:00:09.346Z,8.10
2022-11-12T02:02:37.115Z,8.73
2022-11-12T02:05:07.451Z,9.07
2022-11-12T02:07:39.657Z,8.60
2022-11-12T02:10:07.968Z,8.50
2022-11-12T02:12:53.791Z,8.60
2022-11-12T02:15:20.523Z,11.53
2022-11-12T02:17:47.295Z,9.30
2022-11-12T02:20:15.124Z,9.83
2022-11-12T02:22:41.928Z,8.60
2022-11-12T02:25:18.902Z,9.17
2022-11-12T02:27:46.032Z,8.57
2022-11-12T02:30:13.392Z,9.37
2022-11-12T02:32:40.236Z,8.80
2022-11-12T02:35:07.488Z,8.33
2022-11-12T02:37:34.174Z,8.43
2022-11-12T02:40:01.023Z,8.37
2022-11-12T02:42:27.838Z,8.20
2022-11-12T02:44:54.602Z,8.60
2022-11-12T02:47:21.458Z,8.67
2022-11-12T02:49:48.142Z,8.23
2022-11-12T02:52:14.831Z,8.70
2022-11-12T02:54:41.638Z,8.50
2022-11-12T02:57:08.345Z,8.07
2022-11-12T02:59:35.041Z,11.20
2022-11-12T03:02:01.871Z,8.90
2022-11-12T03:04:28.593Z,9.20
2022-11-12T03:06:55.305Z,8.60
2022-11-12T03:09:22.152Z,9.03
2022-11-12T03:11:48.849Z,7.90
2022-11-12T03:14:15.588Z,8.00
2022-11-12T03:16:42.365Z,8.47
2022-11-12T03:19:09.220Z,8.13
2022-11-12T03:21:35.931Z,8.30
2022-11-12T03:24:02.803Z,8.30
2022-11-12T03:26:34.536Z,9.00
2022-11-12T03:29:02.497Z,8.57
2022-11-12T03:31:29.396Z,8.70
2022-11-12T03:33:59.330Z,8.50
2022-11-12T03:36:26.043Z,9.00
2022-11-12T03:38:52.871Z,8.20
2022-11-12T03:41:19.580Z,8.10
2022-11-12T03:43:46.701Z,8.43
2022-11-12T03:46:13.779Z,8.13
2022-11-12T03:48:40.466Z,8.10
2022-11-12T03:51:07.176Z,9.23
2022-11-12T03:53:34.173Z,8.77
2022-11-12T03:56:00.910Z,8.77
2022-11-12T03:58:27.848Z,8.80
2022-11-12T04:00:54.844Z,8.50
2022-11-12T04:03:21.735Z,8.77
2022-11-12T04:06:07.577Z,8.30
2022-11-12T04:08:37.484Z,8.37
2022-11-12T04:11:12.752Z,9.38
2022-11-12T04:13:42.185Z,9.03
2022-11-12T04:16:32.272Z,9.25
2022-11-12T04:19:19.419Z,8.15
2022-11-12T04:21:52.343Z,8.07
2022-11-12T04:24:45.360Z,8.67
2022-11-12T04:27:16.743Z,8.10
2022-11-12T04:30:02.820Z,8.17
2022-11-12T04:32:30.779Z,8.03
2022-11-12T04:34:58.273Z,8.67
2022-11-12T04:37:27.088Z,7.47
2022-11-12T04:39:53.944Z,8.07
2022-11-12T04:42:39.624Z,7.97
2022-11-12T04:45:09.421Z,8.03
2022-11-12T04:47:39.167Z,7.90
2022-11-12T04:50:14.812Z,7.85
2022-11-12T04:52:41.767Z,7.90
2022-11-12T04:55:09.323Z,7.40
2022-11-12T04:57:36.573Z,7.40
2022-11-12T05:00:05.241Z,7.10
2022-11-12T05:02:31.933Z,7.93
2022-11-12T05:04:58.778Z,7.30
2022-11-12T05:07:25.479Z,8.00
2022-11-12T05:09:52.287Z,7.70
2022-11-12T05:12:19.097Z,7.30
2022-11-12T05:14:45.812Z,7.47
2022-11-12T05:17:12.597Z,7.33
2022-11-12T05:19:39.485Z,7.30
2022-11-12T05:22:06.278Z,7.80
2022-11-12T05:24:42.520Z,7.33
2022-11-12T05:27:20.774Z,7.70
2022-11-12T05:29:47.618Z,6.63
2022-11-12T05:32:16.066Z,8.27
2022-11-12T05:34:42.922Z,7.50
2022-11-12T05:37:11.452Z,7.50
2022-11-12T05:39:38.573Z,7.40
2022-11-12T05:42:13.064Z,7.53
2022-11-12T05:44:41.035Z,8.33
2022-11-12T05:47:07.911Z,7.67
2022-11-12T05:49:34.636Z,7.87
2022-11-12T05:52:01.510Z,9.93
2022-11-12T05:54:28.258Z,7.37
2022-11-12T05:56:54.967Z,7.33
2022-11-12T05:59:22.518Z,7.80
2022-11-12T06:01:49.453Z,7.50
2022-11-12T06:04:16.904Z,7.23
2022-11-12T06:06:44.522Z,8.33
2022-11-12T06:09:11.877Z,7.37
2022-11-12T06:11:39.119Z,7.50
2022-11-12T06:14:06.095Z,7.60
2022-11-12T06:16:33.432Z,8.43
2022-11-12T06:19:00.582Z,8.60
2022-11-12T06:21:27.946Z,7.53
2022-11-12T06:23:57.964Z,7.20
2022-11-12T06:26:26.610Z,7.20
2022-11-12T06:28:53.669Z,7.07
2022-11-12T06:31:21.712Z,7.40
2022-11-12T06:33:49.158Z,8.10
2022-11-12T06:36:18.537Z,8.00
2022-11-12T06:38:45.703Z,8.05
2022-11-12T06:41:14.251Z,8.10
2022-11-12T06:43:41.409Z,8.47
2022-11-12T06:46:14.344Z,7.50
2022-11-12T06:48:41.383Z,7.60
2022-11-12T06:51:17.742Z,8.37
2022-11-12T06:53:45.014Z,8.07
2022-11-12T06:56:12.613Z,8.23
2022-11-12T06:58:39.991Z,8.07
2022-11-12T07:01:12.416Z,7.43
2022-11-12T07:03:41.018Z,7.87
2022-11-12T07:06:10.085Z,7.83
2022-11-12T07:08:37.693Z,7.50
2022-11-12T07:11:05.290Z,7.60
2022-11-12T07:13:33.587Z,8.40
2022-11-12T07:16:01.425Z,8.10
2022-11-12T07:18:29.669Z,8.47
2022-11-12T07:21:04.421Z,9.30
2022-11-12T07:23:32.896Z,8.97
2022-11-12T07:26:14.324Z,8.50
2022-11-12T07:28:41.883Z,8.70
2022-11-12T07:31:12.018Z,9.00
2022-11-12T07:36:06.953Z,8.10
2022-11-12T07:38:36.793Z,11.93
2022-11-12T07:41:11.717Z,8.55
2022-11-12T07:43:39.792Z,7.60
2022-11-12T07:46:12.071Z,8.00
2022-11-12T07:48:40.143Z,8.27
2022-11-12T07:51:13.117Z,7.87
2022-11-12T07:53:40.667Z,7.90
2022-11-12T07:56:07.908Z,7.83
2022-11-12T07:58:35.919Z,8.90
2022-11-12T08:01:09.469Z,8.47
2022-11-12T08:03:36.807Z,8.60
2022-11-12T08:06:04.367Z,8.15
2022-11-12T08:08:31.051Z,8.07
2022-11-12T08:10:59.101Z,10.73
2022-11-12T08:13:26.114Z,11.85
2022-11-12T08:15:53.020Z,8.35
2022-11-12T08:18:19.860Z,8.27
2022-11-12T08:20:49.364Z,8.43
2022-11-12T08:23:16.116Z,9.55
2022-11-12T08:25:43.001Z,9.27
2022-11-12T08:28:09.739Z,11.48
2022-11-12T08:30:36.507Z,8.75
2022-11-12T08:33:05.789Z,10.18
2022-11-12T08:35:33.238Z,11.25
2022-11-12T08:38:01.595Z,9.82
2022-11-12T08:40:30.229Z,10.05
2022-11-12T08:43:05.444Z,9.15
2022-11-12T08:45:33.883Z,8.68
2022-11-12T08:48:19.115Z,8.40
2022-11-12T08:50:46.149Z,8.80
2022-11-12T08:53:14.370Z,9.13
2022-11-12T08:55:41.071Z,8.98
2022-11-12T08:58:08.412Z,9.02
2022-11-12T09:00:39.300Z,9.25
2022-11-12T09:03:07.862Z,12.05
2022-11-12T09:05:35.903Z,9.48
2022-11-12T09:08:05.753Z,12.18
2022-11-12T09:13:00.148Z,8.82
2022-11-12T09:15:37.302Z,9.20
2022-11-12T09:18:10.965Z,8.95
2022-11-12T09:20:37.779Z,10.02
2022-11-12T09:23:10.893Z,9.60
2022-11-12T09:25:38.279Z,9.18
2022-11-12T09:28:15.182Z,8.40
2022-11-12T09:30:47.561Z,11.50
2022-11-12T09:33:16.450Z,12.05
2022-11-12T09:35:43.859Z,9.77
2022-11-12T09:38:10.558Z,9.57
2022-11-12T09:40:54.385Z,8.88
2022-11-12T09:43:27.835Z,9.70
2022-11-12T09:46:21.492Z,10.32
2022-11-12T09:48:51.915Z,10.35
2022-11-12T09:51:31.514Z,10.73
2022-11-12T09:54:01.818Z,9.60
2022-11-12T09:56:29.921Z,9.32
2022-11-12T09:58:57.235Z,10.35
2022-11-12T10:01:36.303Z,8.65
2022-11-12T10:04:27.681Z,9.45
2022-11-12T10:07:04.345Z,9.25
2022-11-12T10:10:09.477Z,15.02
2022-11-12T10:12:38.985Z,10.20
2022-11-12T10:16:02.691Z,9.75
2022-11-12T10:18:29.681Z,9.00
2022-11-12T10:21:04.435Z,10.10
2022-11-12T10:23:43.978Z,13.50
2022-11-12T10:29:01.535Z,8.82
2022-11-12T10:31:28.413Z,9.25
2022-11-12T10:34:11.595Z,9.45
2022-11-12T10:36:40.582Z,10.40
2022-11-12T10:39:07.299Z,9.63
2022-11-12T10:41:34.599Z,9.43
2022-11-12T10:44:06.489Z,10.32
2022-11-12T10:46:36.448Z,10.75
2022-11-12T10:49:05.119Z,10.25
2022-11-12T10:51:37.187Z,10.95
2022-11-12T10:54:20.953Z,10.05
2022-11-12T10:56:55.019Z,10.43
2022-11-12T10:59:25.649Z,10.70
2022-11-12T11:01:59.243Z,10.52
2022-11-12T11:04:35.926Z,11.27
2022-11-12T11:07:16.440Z,10.50
2022-11-12T11:09:57.520Z,12.02
2022-11-12T11:12:30.669Z,10.48
2022-11-12T11:15:22.136Z,10.35
2022-11-12T11:17:49.217Z,11.85
2022-11-12T11:20:25.992Z,11.10
2022-11-12T11:22:59.029Z,12.00
2022-11-12T11:25:29.935Z,13.90
2022-11-12T11:28:26.970Z,12.85
2022-11-12T11:31:27.322Z,12.48
2022-11-12T11:34:09.314Z,14.07
2022-11-12T11:36:35.965Z,13.95
2022-11-12T11:39:30.598Z,13.48
2022-11-12T11:42:22.047Z,15.65
2022-11-12T11:45:24.871Z,14.55
2022-11-12T11:48:01.700Z,14.88
2022-11-12T11:50:33.958Z,14.10
2022-11-12T11:53:26.124Z,13.15
2022-11-12T11:56:14.293Z,9.02
2022-11-12T11:59:17.231Z,13.43
2022-11-12T12:02:11.500Z,9.02
2022-11-12T12:04:58.383Z,14.13
2022-11-12T12:07:56.249Z,13.27
2022-11-12T12:13:51.298Z,15.48
2022-11-12T12:16:29.571Z,16.15
2022-11-12T12:19:01.907Z,13.48
2022-11-12T12:21:32.181Z,13.77
2022-11-12T12:24:06.085Z,16.38
2022-11-12T12:26:57.565Z,14.18
2022-11-12T12:29:50.233Z,16.10
2022-11-12T12:32:40.452Z,14.73
2022-11-12T12:35:26.460Z,15.38
2022-11-12T12:38:07.878Z,15.20
2022-11-12T12:40:37.239Z,15.25
2022-11-12T12:43:44.066Z,14.80
2022-11-12T12:46:13.421Z,14.60
2022-11-12T12:48:46.310Z,14.48
2022-11-12T12:51:13.721Z,14.38
2022-11-12T12:53:40.801Z,12.70
2022-11-12T12:56:10.660Z,13.75
2022-11-12T12:58:45.093Z,13.95
2022-11-12T13:01:35.034Z,13.25
2022-11-12T13:04:04.783Z,11.88
2022-11-12T13:06:38.577Z,12.70
2022-11-12T13:09:20.783Z,11.48
2022-11-12T13:12:04.962Z,11.57
2022-11-12T13:14:34.291Z,13.73
2022-11-12T13:17:02.056Z,15.48
2022-11-12T13:19:55.692Z,13.82
2022-11-12T13:22:24.117Z,14.50
2022-11-12T13:25:06.049Z,13.43
2022-11-12T13:27:45.181Z,17.80
2022-11-12T13:30:16.489Z,14.15
2022-11-12T13:32:51.975Z,15.63
2022-11-12T13:35:18.804Z,13.25
2022-11-12T13:37:47.517Z,16.60
2022-11-12T13:40:30.921Z,15.35
2022-11-12T13:43:27.960Z,12.98
2022-11-12T13:46:06.865Z,13.35
2022-11-12T13:48:37.222Z,12.77
2022-11-12T13:51:17.074Z,12.90
2022-11-12T13:56:12.582Z,13.90
2022-11-12T13:58:44.301Z,13.75
2022-11-12T14:01:12.821Z,15.48
2022-11-12T14:03:46.039Z,20.33
2022-11-12T14:06:29.044Z,14.68
2022-11-12T14:09:01.297Z,15.23
2022-11-12T14:11:46.132Z,17.08
2022-11-12T14:14:32.402Z,14.18
2022-11-12T14:17:18.152Z,15.95
2022-11-12T14:19:47.896Z,14.93
2022-11-12T14:22:18.609Z,13.25
2022-11-12T14:24:48.225Z,16.83
2022-11-12T14:27:33.984Z,12.40
2022-11-12T14:30:17.840Z,12.68
2022-11-12T14:32:52.730Z,13.98
2022-11-12T14:35:27.619Z,12.75
2022-11-12T14:37:59.853Z,14.88
2022-11-12T14:40:30.809Z,12.77
2022-11-12T14:42:57.724Z,13.40
2022-11-12T14:45:25.050Z,11.80
2022-11-12T14:47:55.036Z,13.48
2022-11-12T14:50:34.564Z,12.35
2022-11-12T14:53:34.645Z,13.55
2022-11-12T14:56:03.628Z,11.50
2022-11-12T14:58:32.330Z,12.10
2022-11-12T15:00:59.526Z,11.15
2022-11-12T15:03:32.483Z,13.00
2022-11-12T15:06:11.432Z,15.60
2022-11-12T15:08:40.345Z,12.20
2022-11-12T15:11:25.000Z,10.67
2022-11-12T15:13:54.588Z,10.65
2022-11-12T15:16:25.801Z,10.90
2022-11-12T15:19:06.965Z,12.15
2022-11-12T15:21:34.336Z,12.00
2022-11-12T15:24:18.013Z,11.07
2022-11-12T15:26:47.347Z,11.98
2022-11-12T15:29:23.329Z,14.82
2022-11-12T15:32:23.987Z,12.23
2022-11-12T15:34:52.242Z,12.77
2022-11-12T15:37:18.948Z,17.02
2022-11-12T15:39:51.192Z,12.63
2022-11-12T15:42:25.828Z,11.20
2022-11-12T15:45:02.494Z,11.60
2022-11-12T15:47:29.821Z,13.13
2022-11-12T15:49:59.089Z,11.65
2022-11-12T15:52:25.807Z,11.25
2022-11-12T15:54:52.892Z,10.85
2022-11-12T15:57:32.179Z,11.02
2022-11-12T16:00:08.639Z,12.75
2022-11-12T16:02:35.805Z,12.40
2022-11-12T16:05:02.579Z,11.65
2022-11-12T16:07:29.421Z,10.32
2022-11-12T16:09:56.183Z,10.38
2022-11-12T16:12:23.040Z,11.25
2022-11-12T16:14:50.102Z,14.25
2022-11-12T16:17:18.684Z,9.75
2022-11-12T16:19:45.396Z,10.60
2022-11-12T16:22:15.215Z,11.00
2022-11-12T16:27:15.865Z,10.30
2022-11-12T16:29:42.598Z,10.77
2022-11-12T16:32:14.120Z,10.50
2022-11-12T16:34:41.101Z,11.45
2022-11-12T16:37:12.902Z,12.85
2022-11-12T16:39:39.816Z,12.40
2022-11-12T16:42:09.009Z,12.13
2022-11-12T16:44:35.699Z,11.82
2022-11-12T16:47:04.480Z,12.10
2022-11-12T16:49:35.909Z,16.52
2022-11-12T16:52:05.328Z,11.88
2022-11-12T16:54:32.047Z,16.05
2022-11-12T16:56:58.937Z,13.02
2022-11-12T16:59:25.648Z,13.88
2022-11-12T17:01:52.359Z,15.63
2022-11-12T17:04:19.228Z,15.38
2022-11-12T17:06:46.001Z,14.88
2022-11-12T17:09:12.937Z,12.45
2022-11-12T17:11:39.765Z,10.77
2022-11-12T17:14:06.888Z,10.88
2022-11-12T17:16:33.689Z,13.93
2022-11-12T17:19:04.323Z,14.02
2022-11-12T17:21:31.249Z,20.20
2022-11-12T17:23:58.202Z,22.88
2022-11-12T17:26:25.123Z,25.98
2022-11-12T17:28:59.172Z,15.65
2022-11-12T17:31:28.132Z,16.90
2022-11-12T17:33:54.832Z,17.15
2022-11-12T17:36:24.627Z,14.13
2022-11-12T17:38:59.441Z,20.85
2022-11-12T17:41:30.912Z,21.17
2022-11-12T17:43:59.895Z,15.57
2022-11-12T17:46:27.331Z,15.90
2022-11-12T17:48:55.606Z,12.95
2022-11-12T17:51:25.609Z,13.85
2022-11-12T17:56:22.191Z,14.77
2022-11-12T17:58:50.135Z,14.45
2022-11-12T18:01:28.000Z,21.67
2022-11-12T18:03:56.596Z,35.20
2022-11-12T18:06:26.373Z,31.67
2022-11-12T18:08:54.563Z,40.65
2022-11-12T18:11:22.274Z,52.22
2022-11-12T18:13:49.111Z,41.17
2022-11-12T18:16:19.409Z,31.83
2022-11-12T18:18:46.920Z,39.53
2022-11-12T18:21:14.311Z,71.03
2022-11-12T18:23:43.817Z,56.10
2022-11-12T18:26:15.495Z,29.25
2022-11-12T18:28:42.694Z,32.60
2022-11-12T18:31:12.381Z,41.53
2022-11-12T18:33:39.429Z,32.50
2022-11-12T18:36:10.218Z,42.50
2022-11-12T18:38:37.508Z,32.50
2022-11-12T18:41:08.759Z,35.97
2022-11-12T18:43:40.066Z,33.90
2022-11-12T18:46:08.559Z,28.10
2022-11-12T18:48:38.461Z,17.80
2022-11-12T18:51:07.915Z,18.30
2022-11-12T18:53:35.422Z,20.63
2022-11-12T18:56:08.099Z,23.67
2022-11-12T18:58:35.639Z,21.13
2022-11-12T19:01:16.172Z,23.25
2022-11-12T19:03:44.125Z,23.85
2022-11-12T19:06:14.966Z,39.25
2022-11-12T19:08:42.171Z,46.35
2022-11-12T19:11:14.605Z,38.00
2022-11-12T19:13:42.444Z,33.88
2022-11-12T19:16:14.582Z,27.98
2022-11-12T19:18:42.464Z,26.08
2022-11-12T19:21:14.697Z,31.30
2022-11-12T19:23:43.165Z,26.55
2022-11-12T19:26:17.532Z,32.42
2022-11-12T19:28:45.406Z,44.08
2022-11-12T19:31:20.584Z,30.70
2022-11-12T19:33:47.983Z,43.40
2022-11-12T19:36:25.718Z,49.40
2022-11-12T19:39:02.605Z,46.35
2022-11-12T19:41:29.547Z,39.25
2022-11-12T19:43:56.333Z,32.28
2022-11-12T19:46:23.100Z,42.40
2022-11-12T19:48:49.793Z,40.28
2022-11-12T19:51:16.535Z,48.97
2022-11-12T19:53:47.132Z,47.85
2022-11-12T19:56:17.380Z,49.05
2022-11-12T19:58:48.772Z,54.17
2022-11-12T20:01:18.119Z,61.08
2022-11-12T20:03:44.991Z,51.15
2022-11-12T20:06:15.885Z,51.22
2022-11-12T20:08:42.635Z,43.03
2022-11-12T20:11:10.221Z,49.78
2022-11-12T20:13:37.613Z,50.63
2022-11-12T20:16:13.521Z,59.13
2022-11-12T20:18:40.788Z,49.42
2022-11-12T20:21:09.343Z,47.35
2022-11-12T20:23:37.047Z,33.42
2022-11-12T20:26:10.043Z,45.67
2022-11-12T20:28:38.049Z,37.03
2022-11-12T20:31:11.507Z,32.88
2022-11-12T20:33:42.260Z,36.55
2022-11-12T20:36:15.310Z,32.87
2022-11-12T20:38:44.388Z,29.10
2022-11-12T20:41:16.759Z,32.83
2022-11-12T20:43:43.543Z,34.63
2022-11-12T20:46:12.723Z,36.45
2022-11-12T20:48:43.260Z,36.08
2022-11-12T20:51:23.666Z,44.03
2022-11-12T20:53:58.956Z,37.85
2022-11-12T20:56:29.001Z,28.42
2022-11-12T20:58:55.980Z,31.50
2022-11-12T21:01:24.584Z,31.42
2022-11-12T21:03:51.926Z,25.30
2022-11-12T21:06:23.406Z,12.40
2022-11-12T21:08:50.892Z,31.50
2022-11-12T21:11:20.806Z,22.45
2022-11-12T21:13:47.722Z,25.25
2022-11-12T21:16:15.211Z,16.10
2022-11-12T21:18:43.095Z,18.13
2022-11-12T21:21:16.890Z,20.25
2022-11-12T21:23:44.888Z,26.20
2022-11-12T21:26:15.998Z,20.77
2022-11-12T21:28:50.597Z,19.88
2022-11-12T21:31:29.684Z,15.65
2022-11-12T21:34:03.545Z,27.15
2022-11-12T21:36:32.178Z,21.13
2022-11-12T21:38:59.064Z,26.20
2022-11-12T21:41:28.316Z,26.07
2022-11-12T21:43:55.502Z,19.60
2022-11-12T21:46:25.936Z,31.87
2022-11-12T21:48:55.407Z,25.83
2022-11-12T21:51:30.064Z,28.85
2022-11-12T21:54:02.606Z,28.63
2022-11-12T21:56:30.395Z,38.30
2022-11-12T21:59:00.717Z,32.60
2022-11-12T22:01:31.880Z,39.87
2022-11-12T22:04:01.993Z,32.63
2022-11-12T22:08:57.594Z,34.77
2022-11-12T22:11:25.512Z,29.47
2022-11-12T22:13:52.266Z,30.10
2022-11-12T22:16:21.766Z,33.40
2022-11-12T22:18:51.443Z,38.03
2022-11-12T22:21:24.151Z,29.30
2022-11-12T22:23:51.076Z,29.67
2022-11-12T22:26:22.895Z,29.87
2022-11-12T22:28:49.799Z,20.00
2022-11-12T22:31:19.421Z,34.10
2022-11-12T22:33:46.319Z,29.90
2022-11-12T22:36:15.956Z,22.03
2022-11-12T22:38:45.095Z,23.42
2022-11-12T22:41:17.368Z,32.85
2022-11-12T22:43:47.412Z,21.13
2022-11-12T22:48:42.534Z,25.47
2022-11-12T22:51:18.015Z,26.57
2022-11-12T22:53:45.203Z,31.67
2022-11-12T22:56:15.642Z,33.50
2022-11-12T22:58:44.651Z,25.27
2022-11-12T23:01:23.130Z,21.50
2022-11-12T23:03:52.172Z,28.93
2022-11-12T23:06:19.295Z,25.33
2022-11-12T23:08:46.386Z,31.43
2022-11-12T23:11:15.651Z,27.83
2022-11-12T23:13:43.120Z,20.65
2022-11-12T23:16:19.729Z,23.67
2022-11-12T23:18:47.062Z,31.73
2022-11-12T23:21:25.624Z,32.77
2022-11-12T23:23:52.624Z,28.17
2022-11-12T23:26:25.119Z,28.83
2022-11-12T23:28:52.287Z,23.60
2022-11-12T23:31:22.271Z,20.83
2022-11-12T23:33:51.434Z,17.52
2022-11-12T23:36:18.839Z,22.80
2022-11-12T23:38:45.930Z,19.17
2022-11-12T23:41:15.112Z,18.57
2022-11-12T23:43:42.155Z,25.80
2022-11-12T23:46:09.228Z,27.50
2022-11-12T23:48:36.150Z,20.97
2022-11-12T23:51:11.180Z,24.95
2022-11-12T23:53:39.150Z,15.90
2022-11-12T23:56:07.506Z,13.03
2022-11-12T23:58:34.218Z,25.77
